createdAt,value
2022-10-07T00:00:36.264Z,8.23
2022-10-07T00:03:02.920Z,8.15
2022-10-07T00:05:29.531Z,8.10
2022-10-07T00:07:56.198Z,8.15
2022-10-07T00:10:22.849Z,8.10
2022-10-07T00:12:49.854Z,8.13
2022-10-07T00:15:17.057Z,8.05
2022-10-07T00:17:45.067Z,7.89
2022-10-07T00:20:12.064Z,7.91
2022-10-07T00:22:38.859Z,7.92
2022-10-07T00:25:05.899Z,7.82
2022-10-07T00:27:32.698Z,7.85
2022-10-07T00:29:59.335Z,7.79
2022-10-07T00:32:25.951Z,7.72
2022-10-07T00:34:52.559Z,7.65
2022-10-07T00:37:19.088Z,7.57
2022-10-07T00:39:45.818Z,7.54
2022-10-07T00:42:13.782Z,7.58
2022-10-07T00:44:48.482Z,7.51
2022-10-07T00:47:28.345Z,7.58
2022-10-07T00:50:10.158Z,7.50
2022-10-07T00:52:44.271Z,7.54
2022-10-07T00:55:16.683Z,7.65
2022-10-07T00:57:44.613Z,7.61
2022-10-07T01:00:11.876Z,7.63
2022-10-07T01:02:39.268Z,7.54
2022-10-07T01:05:08.093Z,7.43
2022-10-07T01:07:34.604Z,7.39
2022-10-07T01:10:02.424Z,7.37
2022-10-07T01:12:34.796Z,7.28
2022-10-07T01:15:13.430Z,7.26
2022-10-07T01:17:56.116Z,7.26
2022-10-07T01:20:30.986Z,7.23
2022-10-07T01:23:29.795Z,7.23
2022-10-07T01:26:09.405Z,7.12
2022-10-07T01:29:08.567Z,7.07
2022-10-07T01:31:44.966Z,7.06
2022-10-07T01:34:14.142Z,7.12
2022-10-07T01:36:42.864Z,7.09
2022-10-07T01:39:12.628Z,7.06
2022-10-07T01:41:40.044Z,7.05
2022-10-07T01:44:09.904Z,7.06
2022-10-07T01:46:37.852Z,6.96
2022-10-07T01:49:06.189Z,7.00
2022-10-07T01:51:37.548Z,6.97
2022-10-07T01:54:14.186Z,6.92
2022-10-07T01:57:08.974Z,6.91
2022-10-07T02:00:00.110Z,6.96
2022-10-07T02:02:29.444Z,7.05
2022-10-07T02:05:14.232Z,7.03
2022-10-07T02:07:51.847Z,7.03
2022-10-07T02:10:26.565Z,6.97
2022-10-07T02:13:04.637Z,7.05
2022-10-07T02:15:53.786Z,6.99
2022-10-07T02:18:20.519Z,7.00
2022-10-07T02:20:52.382Z,7.12
2022-10-07T02:23:21.847Z,6.99
2022-10-07T02:25:50.830Z,7.03
2022-10-07T02:28:21.564Z,6.93
2022-10-07T02:30:53.786Z,7.07
2022-10-07T02:33:23.689Z,7.00
2022-10-07T02:36:03.559Z,7.05
2022-10-07T02:38:30.774Z,7.03
2022-10-07T02:41:13.465Z,7.03
2022-10-07T02:43:48.616Z,6.99
2022-10-07T02:46:26.433Z,6.99
2022-10-07T02:49:00.738Z,7.02
2022-10-07T02:51:37.634Z,7.05
2022-10-07T02:54:04.532Z,7.07
2022-10-07T02:56:34.056Z,7.10
2022-10-07T02:59:04.295Z,7.05
2022-10-07T03:01:37.399Z,7.05
2022-10-07T03:04:03.994Z,7.07
2022-10-07T03:06:30.491Z,7.07
2022-10-07T03:08:58.026Z,7.05
2022-10-07T03:11:24.620Z,6.99
2022-10-07T03:13:51.108Z,7.09
2022-10-07T03:16:17.932Z,6.95
2022-10-07T03:18:46.226Z,6.99
2022-10-07T03:21:12.630Z,6.95
2022-10-07T03:23:39.029Z,6.91
2022-10-07T03:26:05.672Z,6.96
2022-10-07T03:28:35.550Z,6.91
2022-10-07T03:31:10.450Z,6.92
2022-10-07T03:33:37.336Z,6.86
2022-10-07T03:36:05.729Z,6.89
2022-10-07T03:38:33.004Z,6.81
2022-10-07T03:41:01.857Z,6.88
2022-10-07T03:43:28.589Z,6.76
2022-10-07T03:45:56.995Z,6.72
2022-10-07T03:48:23.405Z,6.86
2022-10-07T03:50:53.647Z,6.84
2022-10-07T03:53:20.738Z,6.86
2022-10-07T03:55:47.371Z,6.76
2022-10-07T03:58:13.917Z,6.78
2022-10-07T04:00:41.172Z,6.81
2022-10-07T04:03:08.097Z,6.81
2022-10-07T04:05:36.072Z,6.76
2022-10-07T04:08:05.058Z,6.79
2022-10-07T04:10:32.397Z,6.72
2022-10-07T04:12:59.237Z,6.72
2022-10-07T04:15:25.892Z,6.71
2022-10-07T04:17:58.302Z,6.69
2022-10-07T04:20:25.988Z,6.72
2022-10-07T04:22:52.455Z,6.75
2022-10-07T04:25:33.792Z,6.72
2022-10-07T04:28:06.620Z,6.69
2022-10-07T04:30:39.353Z,6.78
2022-10-07T04:33:06.313Z,6.82
2022-10-07T04:35:37.230Z,6.79
2022-10-07T04:38:03.715Z,6.72
2022-10-07T04:40:31.192Z,6.69
2022-10-07T04:43:16.414Z,6.69
2022-10-07T04:45:43.281Z,6.76
2022-10-07T04:48:09.767Z,6.72
2022-10-07T04:50:38.499Z,6.69
2022-10-07T04:53:09.983Z,6.61
2022-10-07T04:55:38.197Z,6.61
2022-10-07T04:58:05.075Z,6.54
2022-10-07T05:00:32.714Z,6.49
2022-10-07T05:02:59.719Z,6.58
2022-10-07T05:05:27.237Z,6.49
2022-10-07T05:07:54.940Z,6.48
2022-10-07T05:10:21.949Z,6.52
2022-10-07T05:12:51.435Z,6.41
2022-10-07T05:15:20.337Z,6.44
2022-10-07T05:17:47.345Z,6.34
2022-10-07T05:20:14.099Z,6.37
2022-10-07T05:22:40.526Z,6.30
2022-10-07T05:25:07.282Z,6.33
2022-10-07T05:27:33.722Z,6.35
2022-10-07T05:30:00.272Z,6.35
2022-10-07T05:32:27.899Z,6.34
2022-10-07T05:34:54.467Z,6.33
2022-10-07T05:37:20.897Z,6.31
2022-10-07T05:39:47.601Z,6.31
2022-10-07T05:42:14.237Z,6.24
2022-10-07T05:44:40.653Z,6.20
2022-10-07T05:47:07.151Z,6.42
2022-10-07T05:49:33.564Z,6.38
2022-10-07T05:51:59.961Z,6.34
2022-10-07T05:54:26.912Z,6.30
2022-10-07T05:56:53.913Z,6.35
2022-10-07T05:59:20.733Z,6.34
2022-10-07T06:01:47.609Z,6.34
2022-10-07T06:04:14.144Z,6.31
2022-10-07T06:06:40.504Z,6.33
2022-10-07T06:09:25.696Z,6.42
2022-10-07T06:12:10.890Z,6.47
2022-10-07T06:14:37.298Z,6.52
2022-10-07T06:17:04.878Z,6.49
2022-10-07T06:19:31.359Z,6.52
2022-10-07T06:21:57.861Z,6.55
2022-10-07T06:24:25.729Z,6.58
2022-10-07T06:26:55.257Z,6.91
2022-10-07T06:32:36.100Z,7.60
2022-10-07T06:35:02.642Z,7.82
2022-10-07T06:37:32.655Z,7.98
2022-10-07T06:39:59.816Z,8.33
2022-10-07T06:42:26.389Z,8.21
2022-10-07T06:44:53.847Z,8.64
2022-10-07T06:47:21.367Z,8.97
2022-10-07T06:49:47.968Z,8.53
2022-10-07T06:52:14.495Z,8.65
2022-10-07T06:54:40.901Z,8.46
2022-10-07T06:57:26.399Z,8.40
2022-10-07T06:59:54.987Z,8.68
2022-10-07T07:02:21.446Z,8.65
2022-10-07T07:04:47.986Z,8.52
2022-10-07T07:07:14.401Z,9.16
2022-10-07T07:09:40.760Z,9.14
2022-10-07T07:12:07.199Z,9.07
2022-10-07T07:14:35.674Z,9.76
2022-10-07T07:17:02.849Z,9.69
2022-10-07T07:19:29.519Z,9.98
2022-10-07T07:21:56.204Z,9.84
2022-10-07T07:24:22.654Z,10.21
2022-10-07T07:26:49.056Z,9.89
2022-10-07T07:29:16.744Z,10.21
2022-10-07T07:31:43.204Z,10.11
2022-10-07T07:34:12.108Z,10.50
2022-10-07T07:36:44.313Z,10.39
2022-10-07T07:39:13.590Z,10.18
2022-10-07T07:41:41.887Z,10.42
2022-10-07T07:44:11.266Z,10.86
2022-10-07T07:46:42.144Z,11.08
2022-10-07T07:49:10.476Z,10.96
2022-10-07T07:51:37.251Z,11.01
2022-10-07T07:54:04.350Z,11.61
2022-10-07T07:56:33.634Z,11.85
2022-10-07T07:59:01.687Z,11.32
2022-10-07T08:01:32.028Z,11.72
2022-10-07T08:03:58.932Z,12.24
2022-10-07T08:06:27.802Z,12.64
2022-10-07T08:08:57.219Z,12.27
2022-10-07T08:11:23.919Z,12.09
2022-10-07T08:13:51.555Z,12.00
2022-10-07T08:16:20.365Z,11.95
2022-10-07T08:18:49.513Z,12.12
2022-10-07T08:21:18.323Z,12.57
2022-10-07T08:23:45.170Z,12.26
2022-10-07T08:26:11.642Z,12.82
2022-10-07T08:28:39.089Z,12.48
2022-10-07T08:31:14.235Z,12.79
2022-10-07T08:33:44.841Z,13.44
2022-10-07T08:36:14.858Z,13.26
2022-10-07T08:38:42.760Z,13.19
2022-10-07T08:41:09.598Z,13.29
2022-10-07T08:43:49.233Z,13.65
2022-10-07T08:46:19.361Z,13.19
2022-10-07T08:49:00.797Z,13.56
2022-10-07T08:51:38.913Z,14.49
2022-10-07T08:54:06.400Z,13.63
2022-10-07T08:56:33.786Z,14.32
2022-10-07T08:59:31.697Z,13.58
2022-10-07T09:02:18.077Z,14.76
2022-10-07T09:05:00.443Z,15.05
2022-10-07T09:07:47.883Z,15.18
2022-10-07T09:10:30.763Z,16.14
2022-10-07T09:13:03.086Z,15.52
2022-10-07T09:15:57.179Z,15.53
2022-10-07T09:18:32.081Z,16.75
2022-10-07T09:20:59.513Z,16.38
2022-10-07T09:23:30.843Z,16.41
2022-10-07T09:25:57.454Z,16.78
2022-10-07T09:28:28.401Z,18.27
2022-10-07T09:30:56.225Z,18.10
2022-10-07T09:33:24.531Z,17.79
2022-10-07T09:36:04.570Z,17.48
2022-10-07T09:38:36.855Z,18.39
2022-10-07T09:41:15.026Z,19.05
2022-10-07T09:43:56.418Z,17.43
2022-10-07T09:46:47.609Z,17.64
2022-10-07T09:49:35.809Z,17.81
2022-10-07T09:52:19.073Z,17.59
2022-10-07T09:54:48.346Z,16.85
2022-10-07T09:57:34.021Z,16.83
2022-10-07T10:00:25.501Z,17.00
2022-10-07T10:03:06.099Z,18.25
2022-10-07T10:05:38.946Z,17.83
2022-10-07T10:08:28.332Z,18.50
2022-10-07T10:11:06.385Z,19.46
2022-10-07T10:13:35.791Z,19.63
2022-10-07T10:16:05.295Z,19.18
2022-10-07T10:18:41.255Z,19.12
2022-10-07T10:21:15.847Z,18.88
2022-10-07T10:23:47.190Z,19.62
2022-10-07T10:26:33.643Z,19.55
2022-10-07T10:29:23.947Z,20.58
2022-10-07T10:32:25.920Z,20.25
2022-10-07T10:35:07.937Z,19.16
2022-10-07T10:37:40.268Z,18.41
2022-10-07T10:40:09.331Z,18.84
2022-10-07T10:43:22.565Z,18.84
2022-10-07T10:46:06.620Z,20.24
2022-10-07T10:48:38.803Z,19.78
2022-10-07T10:51:14.004Z,21.10
2022-10-07T10:53:52.162Z,21.10
2022-10-07T10:56:39.005Z,22.44
2022-10-07T10:59:23.725Z,19.64
2022-10-07T11:02:03.581Z,20.00
2022-10-07T11:04:43.488Z,21.88
2022-10-07T11:07:29.555Z,22.35
2022-10-07T11:10:02.360Z,21.45
2022-10-07T11:12:48.652Z,21.57
2022-10-07T11:15:22.482Z,21.64
2022-10-07T11:17:52.341Z,20.59
2022-10-07T11:20:31.237Z,22.13
2022-10-07T11:23:09.483Z,20.93
2022-10-07T11:25:47.712Z,22.10
2022-10-07T11:28:21.710Z,23.61
2022-10-07T11:30:59.928Z,23.74
2022-10-07T11:33:37.153Z,23.52
2022-10-07T11:36:13.026Z,23.31
2022-10-07T11:38:40.041Z,24.13
2022-10-07T11:41:13.712Z,22.10
2022-10-07T11:43:49.579Z,20.72
2022-10-07T11:46:22.800Z,21.69
2022-10-07T11:49:17.304Z,21.09
2022-10-07T11:52:04.307Z,22.57
2022-10-07T11:54:50.210Z,21.83
2022-10-07T11:57:24.629Z,21.75
2022-10-07T11:59:58.483Z,21.98
2022-10-07T12:02:28.081Z,20.55
2022-10-07T12:05:04.517Z,20.71
2022-10-07T12:07:40.562Z,20.72
2022-10-07T12:10:18.124Z,20.77
2022-10-07T12:12:45.177Z,21.82
2022-10-07T12:15:24.196Z,21.50
2022-10-07T12:17:55.421Z,22.73
2022-10-07T12:20:44.875Z,23.50
2022-10-07T12:23:18.044Z,24.49
2022-10-07T12:25:52.977Z,24.78
2022-10-07T12:28:31.959Z,21.77
2022-10-07T12:31:04.770Z,21.31
2022-10-07T12:33:43.189Z,22.10
2022-10-07T12:36:18.695Z,21.21
2022-10-07T12:39:07.920Z,21.27
2022-10-07T12:41:39.845Z,21.51
2022-10-07T12:44:18.182Z,20.71
2022-10-07T12:47:00.837Z,20.46
2022-10-07T12:49:36.653Z,21.45
2022-10-07T12:52:16.449Z,23.43
2022-10-07T12:54:48.358Z,21.50
2022-10-07T12:57:21.257Z,22.19
2022-10-07T13:00:02.761Z,21.90
2022-10-07T13:02:50.664Z,21.93
2022-10-07T13:05:36.119Z,23.19
2022-10-07T13:08:36.971Z,22.70
2022-10-07T13:11:36.813Z,24.04
2022-10-07T13:14:18.374Z,24.92
2022-10-07T13:17:15.270Z,23.80
2022-10-07T13:19:49.338Z,23.69
2022-10-07T13:22:19.428Z,23.80
2022-10-07T13:24:53.123Z,23.65
2022-10-07T13:27:34.619Z,24.67
2022-10-07T13:30:03.976Z,25.29
2022-10-07T13:32:35.579Z,24.52
2022-10-07T13:35:30.573Z,24.40
2022-10-07T13:37:57.246Z,22.76
2022-10-07T13:40:35.150Z,21.86
2022-10-07T13:43:04.696Z,21.19
2022-10-07T13:45:33.300Z,21.90
2022-10-07T13:48:00.182Z,23.25
2022-10-07T13:50:30.552Z,23.14
2022-10-07T13:52:57.411Z,22.70
2022-10-07T13:55:32.095Z,22.16
2022-10-07T13:58:02.014Z,22.37
2022-10-07T14:00:29.434Z,23.67
2022-10-07T14:02:55.881Z,23.41
2022-10-07T14:05:24.022Z,23.05
2022-10-07T14:07:59.398Z,23.21
2022-10-07T14:10:28.645Z,23.04
2022-10-07T14:13:03.171Z,24.44
2022-10-07T14:15:31.899Z,24.92
2022-10-07T14:18:04.213Z,24.37
2022-10-07T14:20:33.853Z,23.15
2022-10-07T14:23:03.103Z,23.05
2022-10-07T14:25:59.235Z,23.02
2022-10-07T14:28:25.720Z,23.62
2022-10-07T14:31:26.191Z,23.73
2022-10-07T14:34:36.691Z,22.73
2022-10-07T14:37:10.327Z,23.66
2022-10-07T14:39:48.266Z,23.31
2022-10-07T14:42:26.494Z,23.63
2022-10-07T14:44:54.832Z,24.27
2022-10-07T14:47:24.306Z,24.96
2022-10-07T14:49:54.789Z,24.13
2022-10-07T14:52:31.159Z,23.77
2022-10-07T14:55:03.939Z,24.32
2022-10-07T14:57:30.689Z,24.41
2022-10-07T14:59:58.646Z,24.27
2022-10-07T15:02:25.202Z,25.06
2022-10-07T15:04:51.805Z,24.83
2022-10-07T15:07:18.458Z,23.07
2022-10-07T15:09:46.150Z,22.81
2022-10-07T15:12:16.330Z,22.44
2022-10-07T15:14:42.924Z,22.32
2022-10-07T15:17:12.470Z,22.05
2022-10-07T15:19:38.939Z,22.47
2022-10-07T15:22:05.694Z,22.95
2022-10-07T15:24:33.214Z,22.92
2022-10-07T15:26:59.856Z,21.85
2022-10-07T15:29:26.262Z,22.66
2022-10-07T15:31:52.740Z,23.34
2022-10-07T15:34:19.534Z,23.66
2022-10-07T15:36:46.857Z,23.77
2022-10-07T15:39:13.267Z,22.91
2022-10-07T15:41:41.607Z,22.44
2022-10-07T15:44:15.318Z,22.85
2022-10-07T15:46:48.509Z,22.87
2022-10-07T15:49:18.734Z,22.77
2022-10-07T15:51:46.918Z,22.50
2022-10-07T15:54:13.497Z,22.13
2022-10-07T15:56:40.027Z,22.10
2022-10-07T15:59:06.783Z,21.95
2022-10-07T16:01:33.283Z,21.98
2022-10-07T16:04:02.247Z,21.92
2022-10-07T16:06:32.342Z,21.93
2022-10-07T16:08:59.769Z,21.95
2022-10-07T16:11:27.962Z,21.96
2022-10-07T16:13:54.587Z,21.68
2022-10-07T16:16:23.588Z,21.55
2022-10-07T16:18:51.926Z,21.30
2022-10-07T16:21:24.206Z,21.16
2022-10-07T16:23:55.059Z,20.84
2022-10-07T16:26:26.288Z,20.39
2022-10-07T16:29:12.811Z,20.00
2022-10-07T16:31:40.995Z,19.76
2022-10-07T16:34:09.618Z,18.92
2022-10-07T16:36:36.658Z,18.57
2022-10-07T16:39:05.153Z,18.33
2022-10-07T16:41:32.878Z,18.08
2022-10-07T16:44:01.141Z,18.17
2022-10-07T16:46:28.705Z,17.98
2022-10-07T16:48:55.703Z,17.82
2022-10-07T16:51:27.676Z,17.61
2022-10-07T16:53:56.169Z,17.40
2022-10-07T16:56:23.426Z,17.30
2022-10-07T16:58:58.695Z,17.20
2022-10-07T17:01:27.439Z,17.07
2022-10-07T17:03:57.162Z,17.07
2022-10-07T17:06:25.643Z,16.76
2022-10-07T17:08:52.731Z,16.72
2022-10-07T17:11:30.541Z,16.47
2022-10-07T17:14:09.576Z,16.42
2022-10-07T17:16:42.818Z,16.42
2022-10-07T17:19:12.754Z,16.21
2022-10-07T17:21:41.690Z,16.11
2022-10-07T17:24:09.098Z,16.07
2022-10-07T17:26:37.413Z,16.07
2022-10-07T17:29:07.663Z,15.96
2022-10-07T17:31:36.557Z,15.74
2022-10-07T17:34:03.610Z,15.77
2022-10-07T17:36:31.213Z,15.56
2022-10-07T17:38:58.563Z,15.59
2022-10-07T17:41:27.788Z,15.34
2022-10-07T17:43:57.206Z,15.27
2022-10-07T17:46:26.141Z,15.25
2022-10-07T17:48:55.154Z,15.11
2022-10-07T17:51:24.161Z,15.07
2022-10-07T17:53:51.225Z,15.14
2022-10-07T17:57:36.070Z,14.76
2022-10-07T18:00:05.203Z,14.76
2022-10-07T18:02:33.767Z,14.72
2022-10-07T18:05:00.390Z,14.46
2022-10-07T18:07:27.085Z,14.36
2022-10-07T18:09:53.455Z,14.22
2022-10-07T18:12:38.472Z,14.21
2022-10-07T18:15:20.458Z,14.74
2022-10-07T18:17:54.935Z,14.42
2022-10-07T18:20:23.041Z,14.36
2022-10-07T18:22:56.890Z,14.23
2022-10-07T18:25:24.342Z,14.25
2022-10-07T18:27:51.143Z,14.23
2022-10-07T18:30:18.212Z,14.09
2022-10-07T18:32:44.890Z,14.11
2022-10-07T18:35:11.440Z,13.91
2022-10-07T18:37:37.847Z,14.09
2022-10-07T18:40:04.822Z,13.78
2022-10-07T18:42:31.240Z,13.74
2022-10-07T18:44:57.793Z,13.78
2022-10-07T18:47:24.226Z,13.77
2022-10-07T18:49:51.835Z,13.60
2022-10-07T18:52:18.392Z,13.57
2022-10-07T18:54:44.828Z,13.48
2022-10-07T18:57:11.203Z,13.42
2022-10-07T18:59:37.641Z,13.61
2022-10-07T19:02:04.282Z,13.53
2022-10-07T19:04:31.308Z,13.63
2022-10-07T19:06:58.152Z,13.50
2022-10-07T19:09:25.417Z,13.46
2022-10-07T19:11:51.866Z,13.43
2022-10-07T19:14:19.187Z,13.27
2022-10-07T19:16:49.129Z,13.30
2022-10-07T19:19:22.114Z,13.12
2022-10-07T19:21:54.841Z,13.06
2022-10-07T19:24:45.058Z,13.06
2022-10-07T19:27:11.510Z,13.06
2022-10-07T19:29:37.921Z,12.89
2022-10-07T19:32:08.281Z,12.84
2022-10-07T19:34:35.314Z,12.82
2022-10-07T19:37:01.774Z,12.72
2022-10-07T19:39:28.225Z,12.67
2022-10-07T19:41:57.310Z,12.64
2022-10-07T19:44:24.948Z,12.38
2022-10-07T19:46:52.327Z,12.43
2022-10-07T19:49:18.686Z,12.44
2022-10-07T19:51:45.518Z,12.47
2022-10-07T19:54:13.039Z,12.53
2022-10-07T19:56:40.453Z,12.55
2022-10-07T19:59:10.060Z,12.48
2022-10-07T20:01:42.147Z,12.55
2022-10-07T20:04:15.607Z,12.61
2022-10-07T20:06:42.541Z,12.48
2022-10-07T20:09:14.822Z,12.55
2022-10-07T20:11:41.689Z,12.43
2022-10-07T20:14:09.783Z,12.36
2022-10-07T20:16:39.948Z,12.31
2022-10-07T20:19:11.153Z,12.13
2022-10-07T20:21:38.350Z,11.99
2022-10-07T20:24:06.661Z,11.90
2022-10-07T20:26:36.125Z,11.76
2022-10-07T20:29:05.574Z,11.76
2022-10-07T20:31:35.022Z,11.66
2022-10-07T20:34:02.689Z,11.55
2022-10-07T20:36:31.850Z,11.57
2022-10-07T20:39:19.210Z,11.52
2022-10-07T20:42:04.506Z,11.49
2022-10-07T20:44:33.312Z,11.58
2022-10-07T20:46:59.779Z,11.44
2022-10-07T20:49:28.733Z,11.39
2022-10-07T20:51:58.460Z,11.41
2022-10-07T20:54:26.200Z,11.45
2022-10-07T20:56:54.379Z,11.35
2022-10-07T20:59:21.277Z,11.39
2022-10-07T21:01:50.691Z,11.38
2022-10-07T21:04:17.890Z,11.41
2022-10-07T21:06:44.272Z,11.51
2022-10-07T21:09:11.590Z,11.44
2022-10-07T21:11:38.276Z,11.39
2022-10-07T21:14:04.860Z,11.35
2022-10-07T21:16:34.805Z,11.41
2022-10-07T21:19:02.043Z,11.41
2022-10-07T21:21:29.045Z,11.44
2022-10-07T21:23:55.878Z,11.37
2022-10-07T21:26:22.498Z,11.26
2022-10-07T21:28:49.024Z,12.00
2022-10-07T21:31:18.648Z,11.93
2022-10-07T21:33:48.026Z,11.75
2022-10-07T21:36:23.680Z,11.88
2022-10-07T21:38:56.254Z,12.23
2022-10-07T21:41:30.953Z,11.95
2022-10-07T21:43:58.380Z,12.44
2022-10-07T21:46:26.686Z,12.24
2022-10-07T21:48:55.025Z,12.21
2022-10-07T21:51:22.229Z,12.72
2022-10-07T21:53:54.252Z,12.64
2022-10-07T21:56:21.225Z,12.33
2022-10-07T21:58:49.377Z,12.48
2022-10-07T22:01:18.208Z,12.47
2022-10-07T22:03:45.019Z,12.16
2022-10-07T22:06:16.803Z,12.23
2022-10-07T22:08:45.502Z,12.20
2022-10-07T22:11:15.686Z,12.14
2022-10-07T22:13:55.162Z,12.17
2022-10-07T22:16:23.022Z,11.92
2022-10-07T22:18:51.824Z,11.81
2022-10-07T22:21:21.592Z,11.63
2022-10-07T22:23:53.466Z,11.68
2022-10-07T22:26:23.846Z,11.66
2022-10-07T22:28:50.942Z,11.58
2022-10-07T22:31:18.894Z,11.49
2022-10-07T22:33:53.621Z,11.42
2022-10-07T22:36:20.435Z,11.32
2022-10-07T22:38:47.104Z,11.34
2022-10-07T22:41:15.323Z,11.14
2022-10-07T22:43:44.264Z,11.06
2022-10-07T22:46:19.945Z,10.84
2022-10-07T22:48:48.670Z,10.81
2022-10-07T22:51:16.761Z,10.63
2022-10-07T22:53:46.908Z,10.53
2022-10-07T22:56:17.114Z,10.56
2022-10-07T22:58:50.792Z,10.44
2022-10-07T23:01:18.200Z,10.28
2022-10-07T23:03:46.258Z,10.24
2022-10-07T23:06:15.690Z,10.20
2022-10-07T23:08:42.217Z,10.04
2022-10-07T23:11:13.764Z,9.91
2022-10-07T23:13:40.135Z,9.94
2022-10-07T23:16:11.209Z,9.80
2022-10-07T23:18:39.017Z,9.73
2022-10-07T23:21:08.179Z,9.80
2022-10-07T23:23:36.610Z,9.70
2022-10-07T23:26:05.295Z,9.59
2022-10-07T23:28:34.115Z,9.52
2022-10-07T23:31:05.563Z,9.57
2022-10-07T23:33:32.998Z,9.54
2022-10-07T23:36:01.097Z,9.60
2022-10-07T23:38:28.554Z,9.56
2022-10-07T23:40:55.245Z,9.57
2022-10-07T23:43:22.674Z,9.52
2022-10-07T23:45:49.662Z,9.59
2022-10-07T23:48:16.306Z,9.53
2022-10-07T23:50:44.330Z,9.57
2022-10-07T23:53:10.860Z,9.70
2022-10-07T23:55:37.339Z,9.52
